Wadena, MN

12:10 AM CDT on July 22, 2017 (GMT -0500)
Wadena Municipal

Weather History for KADC - December, 2012

Change the Weather History Date:

Saturday, December 8, 2012

  Actual Average Record
Temperature  
Mean Temperature 20 °F -  
Max Temperature 24 °F 24 °F 52 °F (1939)
Min Temperature 15 °F 6 °F -25 °F (2013)
Degree Days  
Heating Degree Days 46    
Moisture  
Dew Point 18 °F    
Average Humidity 89    
Maximum Humidity 100    
Minimum Humidity 86    
Precipitation  
Precipitation 0.00 in - - ()
Sea Level Pressure  
Sea Level Pressure 29.97 in    
Wind  
Wind Speed 5 mph (ESE)    
Max Wind Speed 10 mph    
Max Gust Speed -    
Visibility 7 miles    
Events Snow    
Averages and records for this station are not official NWS values.
T = Trace of Precipitation, MM = Missing Value Source: NWS Daily Summary

Daily Weather History Graph

Daily Weather History Graph

Search for Another Location

Airport or City:

Trip Planner

Search our weather history database for the weather conditions in past years. The results will help you decide how hot, cold, wet, or windy it might be!

Date:

Astronomy

Dec. 08, 2012 Rise Set
Actual Time 7:52 AM CST 4:33 PM CST
Civil Twilight 7:17 AM CST 5:08 PM CST
Nautical Twilight 6:39 AM CST 5:46 PM CST
Astronomical Twilight 6:02 AM CST 6:23 PM CST
Moon 2:02 AM CST (12/8) 1:17 PM CST (12/8)
Length of Visible Light 9h 51m
Length of Day
8h 41m
Waning Crescent, 28% of the Moon is Illuminated
Dec 8
Waning Crescent
Dec 13
New
Dec 19
First Quarter
Dec 28
Full
Jan 4
Last Quarter

Hourly Weather History & Observations

Time (CST) Temp. Windchill Dew Point Humidity Pressure Visibility Wind Dir Wind Speed Gust Speed Precip Events Conditions
12:15 AM 15.8 °F - 12.2 °F 86% 30.02 in 10.0 mi Calm Calm - N/A Snow Light Snow
12:35 AM 15.8 °F 10.2 °F 12.2 °F 86% 30.02 in 10.0 mi East 3.5 mph - N/A Snow Light Snow
12:53 AM 15.8 °F 10.2 °F 12.2 °F 86% 30.01 in 7.0 mi ENE 3.5 mph - N/A   Overcast
1:14 AM 15.8 °F 10.2 °F 12.2 °F 86% 30.01 in 7.0 mi East 3.5 mph - N/A   Overcast
1:35 AM 15.8 °F 10.2 °F 12.2 °F 86% 30.00 in 10.0 mi East 3.5 mph - N/A Snow Light Snow
1:53 AM 15.8 °F 10.2 °F 12.2 °F 86% 30.00 in 10.0 mi East 3.5 mph - N/A Snow Light Snow
2:14 AM 15.8 °F 10.2 °F 12.2 °F 86% 30.00 in 4.0 mi East 3.5 mph - N/A Snow Light Snow
2:35 AM 15.8 °F 10.2 °F 12.2 °F 86% 30.00 in 4.0 mi East 3.5 mph - N/A Snow Light Snow
2:53 AM 15.8 °F 8.6 °F 12.2 °F 86% 30.00 in 7.0 mi East 4.6 mph - N/A Snow Light Snow
3:15 AM 15.8 °F 10.2 °F 12.2 °F 86% 30.00 in 4.0 mi East 3.5 mph - N/A Snow Light Snow
3:35 AM 15.8 °F 8.6 °F 12.2 °F 86% 30.00 in 7.0 mi East 4.6 mph - N/A Snow Light Snow
3:53 AM 15.8 °F 10.2 °F 12.2 °F 86% 30.00 in 4.0 mi East 3.5 mph - N/A Snow Light Snow
4:15 AM 15.8 °F 10.2 °F 12.2 °F 86% 30.00 in 2.5 mi East 3.5 mph - N/A Snow Light Snow
4:35 AM 15.8 °F 8.6 °F 12.2 °F 86% 29.99 in 4.0 mi ESE 4.6 mph - N/A Snow Light Snow
4:53 AM 15.8 °F 7.2 °F 14.0 °F 93% 29.99 in 4.0 mi ESE 5.8 mph - N/A Snow Light Snow
5:15 AM 15.8 °F 6.1 °F 14.0 °F 93% 29.99 in 4.0 mi ESE 6.9 mph - N/A Snow Light Snow
5:34 AM 15.8 °F 5.1 °F 14.0 °F 93% 29.98 in 4.0 mi ESE 8.1 mph - N/A Snow Light Snow
5:53 AM 15.8 °F 6.1 °F 14.0 °F 93% 29.99 in 4.0 mi SE 6.9 mph - N/A Snow Light Snow
6:15 AM 17.6 °F 8.2 °F 15.8 °F 93% 29.98 in 2.5 mi SE 6.9 mph - N/A Snow Light Snow
6:34 AM 17.6 °F 8.2 °F 15.8 °F 93% 29.98 in 3.0 mi ESE 6.9 mph - N/A Snow Light Snow
6:53 AM 17.6 °F 8.2 °F 15.8 °F 93% 29.97 in 7.0 mi SE 6.9 mph - N/A Snow Light Snow
7:15 AM 17.6 °F 9.3 °F 15.8 °F 93% 29.97 in 7.0 mi ESE 5.8 mph - N/A   Overcast
7:35 AM 17.6 °F 8.2 °F 15.8 °F 93% 29.97 in 7.0 mi SE 6.9 mph - N/A   Overcast
7:53 AM 17.6 °F 8.2 °F 15.8 °F 93% 29.97 in 7.0 mi ESE 6.9 mph - N/A   Overcast
8:14 AM 17.6 °F 9.3 °F 15.8 °F 93% 29.97 in 5.0 mi ESE 5.8 mph - N/A   Overcast
8:35 AM 17.6 °F 7.3 °F 15.8 °F 93% 29.97 in 7.0 mi SE 8.1 mph - N/A   Overcast
8:53 AM 17.6 °F 8.2 °F 15.8 °F 93% 29.98 in 7.0 mi ESE 6.9 mph - N/A   Overcast
9:14 AM 17.6 °F 7.3 °F 17.6 °F 100% 29.98 in 5.0 mi ESE 8.1 mph - N/A   Overcast
9:35 AM 17.6 °F 6.4 °F 17.6 °F 100% 29.98 in 5.0 mi SE 9.2 mph - N/A   Overcast
9:53 AM 19.4 °F 11.5 °F 17.6 °F 93% 29.99 in 5.0 mi SE 5.8 mph - N/A   Overcast
10:14 AM 19.4 °F 11.5 °F 17.6 °F 93% 29.99 in 5.0 mi SE 5.8 mph - N/A   Overcast
10:35 AM 19.4 °F 9.5 °F 17.6 °F 93% 29.99 in 5.0 mi SE 8.1 mph - N/A   Overcast
10:53 AM 21.2 °F 12.6 °F 19.4 °F 93% 30.00 in 5.0 mi SSE 6.9 mph - N/A   Overcast
11:14 AM 21.2 °F 12.6 °F 19.4 °F 93% 29.99 in 5.0 mi SSE 6.9 mph - N/A   Overcast
11:35 AM 23.0 °F 15.8 °F 19.4 °F 86% 29.98 in 5.0 mi SE 5.8 mph - N/A   Overcast
11:53 AM 24.8 °F 16.9 °F 21.2 °F 86% 29.97 in 7.0 mi SE 6.9 mph - N/A   Overcast
12:14 PM 24.8 °F 16.1 °F 21.2 °F 86% 29.96 in 7.0 mi SE 8.1 mph - N/A   Overcast
12:35 PM 24.8 °F 16.9 °F 21.2 °F 86% 29.96 in 10.0 mi SE 6.9 mph - N/A   Overcast
12:52 PM 24.8 °F 16.9 °F 21.2 °F 86% 29.95 in 10.0 mi SE 6.9 mph - N/A   Overcast
1:15 PM 24.8 °F 16.9 °F 21.2 °F 86% 29.95 in 10.0 mi SE 6.9 mph - N/A   Overcast
1:35 PM 24.8 °F 16.1 °F 21.2 °F 86% 29.94 in 10.0 mi SE 8.1 mph - N/A   Overcast
1:52 PM 24.8 °F 15.3 °F 21.2 °F 86% 29.93 in 10.0 mi ESE 9.2 mph - N/A   Overcast
2:14 PM 24.8 °F 16.1 °F 21.2 °F 86% 29.92 in 10.0 mi ESE 8.1 mph - N/A   Overcast
2:35 PM 24.8 °F 15.3 °F 21.2 °F 86% 29.92 in 10.0 mi ESE 9.2 mph - N/A   Overcast
2:53 PM 24.8 °F 16.9 °F 21.2 °F 86% 29.93 in 10.0 mi ESE 6.9 mph - N/A   Overcast
3:14 PM 24.8 °F 17.9 °F 21.2 °F 86% 29.93 in 10.0 mi ESE 5.8 mph - N/A   Mostly Cloudy
3:35 PM 24.8 °F 17.9 °F 21.2 °F 86% 29.94 in 10.0 mi SE 5.8 mph - N/A   Overcast
3:53 PM 24.8 °F 17.9 °F 21.2 °F 86% 29.94 in 10.0 mi SE 5.8 mph - N/A   Overcast
4:14 PM 24.8 °F 16.1 °F 21.2 °F 86% 29.94 in 10.0 mi ESE 8.1 mph - N/A   Mostly Cloudy
4:35 PM 23.0 °F 13.9 °F 21.2 °F 93% 29.95 in 10.0 mi SE 8.1 mph - N/A   Scattered Clouds
4:53 PM 23.0 °F 14.7 °F 19.4 °F 86% 29.95 in 10.0 mi ESE 6.9 mph - N/A   Mostly Cloudy
5:14 PM 23.0 °F 15.8 °F 19.4 °F 86% 29.95 in 10.0 mi ESE 5.8 mph - N/A   Scattered Clouds
5:35 PM 23.0 °F 17.0 °F 19.4 °F 86% 29.95 in 10.0 mi East 4.6 mph - N/A   Clear
6:15 PM 23.0 °F 14.7 °F 19.4 °F 86% 29.96 in 10.0 mi East 6.9 mph - N/A   Overcast
6:35 PM 23.0 °F 13.9 °F 19.4 °F 86% 29.95 in 10.0 mi East 8.1 mph - N/A   Mostly Cloudy
6:52 PM 23.0 °F 13.9 °F 19.4 °F 86% 29.96 in 10.0 mi East 8.1 mph - N/A   Scattered Clouds
7:15 PM 23.0 °F 15.8 °F 19.4 °F 86% 29.96 in 10.0 mi East 5.8 mph - N/A   Clear
7:35 PM 23.0 °F 17.0 °F 19.4 °F 86% 29.97 in 10.0 mi East 4.6 mph - N/A   Clear
7:53 PM 23.0 °F 15.8 °F 19.4 °F 86% 29.96 in 10.0 mi ENE 5.8 mph - N/A   Scattered Clouds
8:15 PM 23.0 °F 15.8 °F 21.2 °F 93% 29.96 in 10.0 mi ENE 5.8 mph - N/A   Overcast
8:34 PM 23.0 °F 14.7 °F 21.2 °F 93% 29.96 in 10.0 mi East 6.9 mph - N/A   Overcast
8:53 PM 23.0 °F 13.9 °F 19.4 °F 86% 29.96 in 10.0 mi East 8.1 mph - N/A   Mostly Cloudy
9:15 PM 23.0 °F 13.1 °F 19.4 °F 86% 29.96 in 5.0 mi ENE 9.2 mph - N/A Snow Light Snow
9:34 PM 23.0 °F 12.4 °F 19.4 °F 86% 29.96 in 5.0 mi ENE 10.4 mph - N/A Snow Light Snow
10:15 PM 23.0 °F 13.1 °F 21.2 °F 93% 29.97 in 2.5 mi ENE 9.2 mph - N/A Snow Light Snow
10:35 PM 23.0 °F 13.9 °F 21.2 °F 93% 29.97 in 2.0 mi East 8.1 mph - N/A Snow Light Snow
10:52 PM 23.0 °F 13.9 °F 21.2 °F 93% 29.97 in 1.8 mi East 8.1 mph - N/A Snow Light Snow
11:15 PM 23.0 °F 13.9 °F 21.2 °F 93% 29.98 in 1.8 mi East 8.1 mph - N/A Snow Light Snow
11:35 PM 23.0 °F 13.9 °F 21.2 °F 93% 29.98 in 1.8 mi East 8.1 mph - N/A Snow Light Snow
11:52 PM 23.0 °F 14.7 °F 21.2 °F 93% 29.98 in 2.0 mi East 6.9 mph - N/A Snow Light Snow